DAL123 EGPH-KBOS
Flight info
| Callsign | DAL123 |
|---|---|
| Flight time | N/A |
| Altitude | 24000 |
| Route | GOSAM DCT GOW L602 BRUCE/N0468F360 DCT AMLAD DCT SUNOT/M082F360 DCT 58N020W 59N030W 59N040W 57N050W DCT HOIST/N0475F360 DCT TAFFY DCT AJJAY OOSHN5 |
| Aircraft | A339/H-SADE1E2E3GHIJ3J5M1P2RWXY/LB2D1 |
Departure
| Time | 2026-05-05 13:14 |
|---|---|
| Airport | Edinburgh Airport (EGPH) |
Arrival
| Time | N/A |
|---|---|
| Airport | Boston Logan International Airport (KBOS) |
| Time | Latitude | Longitude | Altitude | Speed | Heading |
|---|---|---|---|---|---|
| 2026-05-05 12:58 | 55.94884 | -3.35956 | 113 ft | 0 kts | 239° |
| 2026-05-05 13:04 | 55.94891 | -3.35936 | 113 ft | 2 kts | 239° |
| 2026-05-05 13:04 | 55.94899 | -3.35914 | 113 ft | 2 kts | 239° |
| 2026-05-05 13:04 | 55.94907 | -3.35891 | 113 ft | 2 kts | 239° |
| 2026-05-05 13:04 | 55.94914 | -3.35868 | 114 ft | 2 kts | 243° |
| 2026-05-05 13:05 | 55.94918 | -3.35843 | 114 ft | 2 kts | 266° |
| 2026-05-05 13:05 | 55.94918 | -3.35817 | 114 ft | 2 kts | 284° |
| 2026-05-05 13:05 | 55.94913 | -3.35796 | 114 ft | 0 kts | 300° |
| 2026-05-05 13:05 | 55.94911 | -3.35788 | 114 ft | 0 kts | 302° |
| 2026-05-05 13:07 | 55.94918 | -3.35809 | 114 ft | 6 kts | 307° |
| 2026-05-05 13:07 | 55.94964 | -3.35863 | 114 ft | 8 kts | 359° |
| 2026-05-05 13:08 | 55.95022 | -3.35840 | 114 ft | 8 kts | 355° |
| 2026-05-05 13:08 | 55.95070 | -3.35921 | 112 ft | 11 kts | 298° |
| 2026-05-05 13:08 | 55.95106 | -3.36062 | 111 ft | 13 kts | 286° |
| 2026-05-05 13:08 | 55.95132 | -3.36225 | 111 ft | 13 kts | 277° |
| 2026-05-05 13:09 | 55.95099 | -3.36383 | 111 ft | 15 kts | 238° |
| 2026-05-05 13:09 | 55.95040 | -3.36555 | 110 ft | 17 kts | 240° |
| 2026-05-05 13:09 | 55.94976 | -3.36747 | 109 ft | 18 kts | 238° |
| 2026-05-05 13:09 | 55.94908 | -3.36945 | 108 ft | 18 kts | 239° |
| 2026-05-05 13:10 | 55.94843 | -3.37137 | 110 ft | 17 kts | 239° |
| 2026-05-05 13:10 | 55.94780 | -3.37327 | 110 ft | 18 kts | 239° |
| 2026-05-05 13:10 | 55.94714 | -3.37518 | 110 ft | 18 kts | 238° |
| 2026-05-05 13:10 | 55.94649 | -3.37704 | 111 ft | 17 kts | 238° |
| 2026-05-05 13:11 | 55.94590 | -3.37881 | 114 ft | 15 kts | 239° |
| 2026-05-05 13:11 | 55.94533 | -3.38048 | 116 ft | 15 kts | 239° |
| 2026-05-05 13:11 | 55.94477 | -3.38212 | 118 ft | 15 kts | 239° |
| 2026-05-05 13:11 | 55.94411 | -3.38407 | 120 ft | 20 kts | 239° |
| 2026-05-05 13:12 | 55.94340 | -3.38616 | 120 ft | 19 kts | 239° |
| 2026-05-05 13:12 | 55.94283 | -3.38780 | 123 ft | 8 kts | 238° |
| 2026-05-05 13:12 | 55.94284 | -3.38845 | 124 ft | 6 kts | 314° |
| 2026-05-05 13:12 | 55.94331 | -3.38899 | 123 ft | 8 kts | 328° |
| 2026-05-05 13:13 | 55.94387 | -3.38961 | 122 ft | 8 kts | 329° |
| 2026-05-05 13:13 | 55.94413 | -3.38962 | 121 ft | 4 kts | 38° |
| 2026-05-05 13:13 | 55.94432 | -3.38913 | 121 ft | 6 kts | 59° |
| 2026-05-05 13:13 | 55.94541 | -3.38588 | 117 ft | 65 kts | 59° |
| 2026-05-05 13:14 | 55.94899 | -3.37538 | 108 ft | 130 kts | 59° |
| 2026-05-05 13:14 | 55.95439 | -3.35922 | 402 ft | 158 kts | 60° |
| 2026-05-05 13:14 | 55.96019 | -3.34370 | 1174 ft | 153 kts | 51° |
| 2026-05-05 13:14 | 55.96771 | -3.33106 | 1957 ft | 147 kts | 43° |
| 2026-05-05 13:15 | 55.97524 | -3.31928 | 2403 ft | 150 kts | 44° |
| 2026-05-05 13:15 | 55.98322 | -3.30593 | 2710 ft | 163 kts | 43° |
| 2026-05-05 13:15 | 55.99198 | -3.29209 | 3043 ft | 175 kts | 41° |
| 2026-05-05 13:15 | 56.00326 | -3.28237 | 3317 ft | 194 kts | 9° |
| 2026-05-05 13:16 | 56.01699 | -3.28699 | 3592 ft | 217 kts | 332° |
| 2026-05-05 13:16 | 56.02766 | -3.30721 | 3931 ft | 238 kts | 297° |
| 2026-05-05 13:16 | 56.03091 | -3.33694 | 4267 ft | 257 kts | 269° |
| 2026-05-05 13:16 | 56.02819 | -3.36955 | 4670 ft | 272 kts | 259° |
| 2026-05-05 13:17 | 56.02352 | -3.40232 | 5351 ft | 274 kts | 257° |
| 2026-05-05 13:17 | 56.01852 | -3.43459 | 6122 ft | 272 kts | 256° |
| 2026-05-05 13:17 | 56.01343 | -3.46695 | 6879 ft | 270 kts | 257° |
| 2026-05-05 13:17 | 56.00867 | -3.49896 | 7559 ft | 270 kts | 258° |
| 2026-05-05 13:18 | 56.00416 | -3.53143 | 8208 ft | 271 kts | 258° |
| 2026-05-05 13:18 | 56.00053 | -3.56440 | 8829 ft | 271 kts | 272° |
| 2026-05-05 13:18 | 56.00307 | -3.59719 | 9413 ft | 271 kts | 284° |
| 2026-05-05 13:18 | 56.00735 | -3.62962 | 10074 ft | 271 kts | 285° |
| 2026-05-05 13:19 | 56.01169 | -3.66249 | 10544 ft | 278 kts | 284° |
| 2026-05-05 13:19 | 56.01607 | -3.69692 | 10809 ft | 293 kts | 283° |
| 2026-05-05 13:19 | 56.02049 | -3.73340 | 11057 ft | 308 kts | 283° |
| 2026-05-05 13:19 | 56.02496 | -3.77163 | 11372 ft | 320 kts | 282° |
| 2026-05-05 13:20 | 56.02946 | -3.81096 | 11917 ft | 325 kts | 282° |
| 2026-05-05 13:20 | 56.03386 | -3.85013 | 12560 ft | 326 kts | 282° |
| 2026-05-05 13:20 | 56.03828 | -3.88981 | 13171 ft | 329 kts | 282° |
| 2026-05-05 13:20 | 56.04269 | -3.92970 | 13754 ft | 332 kts | 282° |
| 2026-05-05 13:21 | 56.04713 | -3.97016 | 14342 ft | 334 kts | 282° |
| 2026-05-05 13:21 | 56.05163 | -4.01128 | 14938 ft | 337 kts | 281° |
| 2026-05-05 13:21 | 56.05606 | -4.05205 | 15506 ft | 340 kts | 281° |
| 2026-05-05 13:21 | 56.06058 | -4.09379 | 16078 ft | 342 kts | 282° |
| 2026-05-05 13:22 | 56.06506 | -4.13520 | 16633 ft | 345 kts | 282° |
| 2026-05-05 13:22 | 56.06961 | -4.17750 | 17183 ft | 348 kts | 281° |
| 2026-05-05 13:22 | 56.07416 | -4.21983 | 17730 ft | 351 kts | 281° |
| 2026-05-05 13:22 | 56.07876 | -4.26291 | 18263 ft | 354 kts | 281° |
| 2026-05-05 13:23 | 56.08339 | -4.30635 | 18827 ft | 356 kts | 281° |
| 2026-05-05 13:23 | 56.08799 | -4.34961 | 19369 ft | 359 kts | 281° |
| 2026-05-05 13:23 | 56.09265 | -4.39370 | 19868 ft | 362 kts | 281° |
| 2026-05-05 13:23 | 56.09728 | -4.43753 | 20361 ft | 365 kts | 281° |
| 2026-05-05 13:24 | 56.10198 | -4.48239 | 20859 ft | 368 kts | 281° |
| 2026-05-05 13:24 | 56.10666 | -4.52708 | 21331 ft | 370 kts | 281° |
| 2026-05-05 13:24 | 56.11142 | -4.57277 | 21768 ft | 374 kts | 281° |
| 2026-05-05 13:24 | 56.11615 | -4.61839 | 22220 ft | 377 kts | 281° |
| 2026-05-05 13:25 | 56.12091 | -4.66439 | 22687 ft | 379 kts | 280° |
| 2026-05-05 13:25 | 56.12574 | -4.71122 | 23124 ft | 382 kts | 280° |
| 2026-05-05 13:25 | 56.13052 | -4.75784 | 23522 ft | 385 kts | 280° |
| 2026-05-05 13:25 | 56.13535 | -4.80510 | 23919 ft | 388 kts | 280° |
| 2026-05-05 13:26 | 56.14014 | -4.85209 | 24327 ft | 390 kts | 280° |
| 2026-05-05 13:26 | 56.14499 | -4.89992 | 24734 ft | 393 kts | 280° |
| 2026-05-05 13:26 | 56.14990 | -4.94858 | 25137 ft | 395 kts | 280° |
| 2026-05-05 13:26 | 56.15477 | -4.99698 | 25521 ft | 398 kts | 280° |
| 2026-05-05 13:27 | 56.15962 | -5.04545 | 25907 ft | 400 kts | 280° |
| 2026-05-05 13:27 | 56.16450 | -5.09441 | 26273 ft | 402 kts | 280° |
| 2026-05-05 13:27 | 56.16942 | -5.14391 | 26630 ft | 404 kts | 280° |
| 2026-05-05 13:27 | 56.17433 | -5.19358 | 27011 ft | 406 kts | 280° |
| 2026-05-05 13:28 | 56.17916 | -5.24269 | 27366 ft | 407 kts | 280° |
| 2026-05-05 13:28 | 56.18412 | -5.29327 | 27715 ft | 409 kts | 280° |
| 2026-05-05 13:28 | 56.18900 | -5.34329 | 28041 ft | 411 kts | 280° |
| 2026-05-05 13:28 | 56.19388 | -5.39353 | 28354 ft | 413 kts | 280° |
| 2026-05-05 13:29 | 56.19880 | -5.44447 | 28681 ft | 415 kts | 280° |
| 2026-05-05 13:29 | 56.20366 | -5.49494 | 28997 ft | 416 kts | 279° |
| 2026-05-05 13:29 | 56.20857 | -5.54612 | 29305 ft | 418 kts | 279° |
| 2026-05-05 13:29 | 56.21344 | -5.59732 | 29593 ft | 420 kts | 279° |
| 2026-05-05 13:30 | 56.21835 | -5.64918 | 29893 ft | 421 kts | 279° |
| 2026-05-05 13:30 | 56.22320 | -5.70071 | 30203 ft | 422 kts | 279° |
| 2026-05-05 13:30 | 56.22809 | -5.75284 | 30485 ft | 424 kts | 279° |
| 2026-05-05 13:30 | 56.23275 | -5.80509 | 30739 ft | 426 kts | 277° |
| 2026-05-05 13:31 | 56.23611 | -5.85758 | 30991 ft | 428 kts | 275° |
| 2026-05-05 13:31 | 56.23802 | -5.91088 | 31241 ft | 429 kts | 272° |
| 2026-05-05 13:31 | 56.23932 | -5.96425 | 31473 ft | 431 kts | 272° |
| 2026-05-05 13:31 | 56.24055 | -6.01831 | 31702 ft | 433 kts | 272° |
| 2026-05-05 13:32 | 56.24173 | -6.07209 | 31938 ft | 434 kts | 272° |
| 2026-05-05 13:32 | 56.24290 | -6.12599 | 32264 ft | 433 kts | 272° |
| 2026-05-05 13:32 | 56.24403 | -6.17991 | 32619 ft | 431 kts | 272° |
| 2026-05-05 13:32 | 56.24513 | -6.23314 | 32940 ft | 430 kts | 272° |
| 2026-05-05 13:33 | 56.24620 | -6.28692 | 33239 ft | 430 kts | 272° |
| 2026-05-05 13:33 | 56.24724 | -6.33991 | 33526 ft | 429 kts | 272° |
| 2026-05-05 13:33 | 56.24827 | -6.39327 | 33809 ft | 428 kts | 272° |
| 2026-05-05 13:33 | 56.24927 | -6.44644 | 34087 ft | 428 kts | 272° |
| 2026-05-05 13:34 | 56.25026 | -6.50016 | 34355 ft | 427 kts | 272° |
| 2026-05-05 13:34 | 56.25120 | -6.55285 | 34578 ft | 428 kts | 272° |
| 2026-05-05 13:34 | 56.25215 | -6.60666 | 34767 ft | 429 kts | 272° |
| 2026-05-05 13:34 | 56.25306 | -6.65978 | 34936 ft | 430 kts | 271° |
| 2026-05-05 13:35 | 56.25396 | -6.71339 | 35094 ft | 430 kts | 272° |
| 2026-05-05 13:35 | 56.25482 | -6.76650 | 35243 ft | 431 kts | 272° |
| 2026-05-05 13:35 | 56.25568 | -6.82040 | 35386 ft | 432 kts | 272° |
| 2026-05-05 13:35 | 56.25651 | -6.87386 | 35509 ft | 433 kts | 272° |
| 2026-05-05 13:36 | 56.25732 | -6.92766 | 35621 ft | 434 kts | 272° |
| 2026-05-05 13:36 | 56.25810 | -6.98171 | 35736 ft | 434 kts | 272° |
| 2026-05-05 13:36 | 56.25887 | -7.03582 | 35855 ft | 435 kts | 272° |
| 2026-05-05 13:36 | 56.25962 | -7.09055 | 35967 ft | 436 kts | 272° |
| 2026-05-05 13:37 | 56.26034 | -7.14468 | 36069 ft | 437 kts | 272° |
| 2026-05-05 13:37 | 56.26104 | -7.19869 | 36085 ft | 439 kts | 272° |
| 2026-05-05 13:37 | 56.26237 | -7.30828 | 36102 ft | 439 kts | 272° |
| 2026-05-05 13:38 | 56.26361 | -7.41828 | 36106 ft | 442 kts | 272° |
| 2026-05-05 13:38 | 56.26475 | -7.52843 | 36107 ft | 442 kts | 272° |
| 2026-05-05 13:39 | 56.26579 | -7.63819 | 36109 ft | 442 kts | 272° |
| 2026-05-05 13:39 | 56.26673 | -7.74852 | 36106 ft | 442 kts | 271° |
| 2026-05-05 13:40 | 56.26759 | -7.85893 | 36108 ft | 443 kts | 271° |
| 2026-05-05 13:40 | 56.26834 | -7.96917 | 36106 ft | 443 kts | 271° |
| 2026-05-05 13:41 | 56.26899 | -8.07923 | 36098 ft | 443 kts | 271° |
| 2026-05-05 13:41 | 56.26955 | -8.18900 | 36099 ft | 443 kts | 271° |
| 2026-05-05 13:42 | 56.27001 | -8.29912 | 36109 ft | 443 kts | 271° |
| 2026-05-05 13:42 | 56.27037 | -8.40953 | 36117 ft | 443 kts | 271° |
| 2026-05-05 13:43 | 56.27063 | -8.51996 | 36119 ft | 443 kts | 271° |
| 2026-05-05 13:43 | 56.27079 | -8.63002 | 36129 ft | 443 kts | 271° |
| 2026-05-05 13:44 | 56.27085 | -8.74019 | 36128 ft | 443 kts | 270° |
| 2026-05-05 13:44 | 56.27082 | -8.85086 | 36132 ft | 443 kts | 270° |
| 2026-05-05 13:45 | 56.27070 | -8.96097 | 36136 ft | 443 kts | 270° |
| 2026-05-05 13:45 | 56.27046 | -9.07183 | 36139 ft | 443 kts | 270° |
| 2026-05-05 13:46 | 56.27013 | -9.18219 | 36138 ft | 443 kts | 270° |
| 2026-05-05 13:46 | 56.26970 | -9.29251 | 36138 ft | 443 kts | 270° |
| 2026-05-05 13:47 | 56.26917 | -9.40223 | 36139 ft | 443 kts | 270° |
| 2026-05-05 13:47 | 56.26854 | -9.51263 | 36144 ft | 444 kts | 270° |
| 2026-05-05 13:48 | 56.26780 | -9.62371 | 36143 ft | 444 kts | 270° |
| 2026-05-05 13:48 | 56.26695 | -9.73440 | 36144 ft | 444 kts | 269° |
| 2026-05-05 13:49 | 56.26615 | -9.84448 | 36150 ft | 444 kts | 270° |
| 2026-05-05 13:49 | 56.26930 | -9.95512 | 36144 ft | 444 kts | 276° |
| 2026-05-05 13:50 | 56.27838 | -10.06433 | 36145 ft | 444 kts | 281° |
| 2026-05-05 13:50 | 56.29328 | -10.17116 | 36141 ft | 445 kts | 286° |
| 2026-05-05 13:51 | 56.31111 | -10.27770 | 36142 ft | 445 kts | 286° |
| 2026-05-05 13:51 | 56.32896 | -10.38412 | 36142 ft | 445 kts | 286° |
| 2026-05-05 13:52 | 56.34658 | -10.48997 | 36148 ft | 444 kts | 286° |
| 2026-05-05 13:52 | 56.36414 | -10.59612 | 36143 ft | 444 kts | 286° |
| 2026-05-05 13:53 | 56.38163 | -10.70260 | 36143 ft | 444 kts | 285° |
| 2026-05-05 13:53 | 56.39901 | -10.80908 | 36151 ft | 444 kts | 285° |
| 2026-05-05 13:54 | 56.41629 | -10.91555 | 36145 ft | 444 kts | 285° |
| 2026-05-05 13:54 | 56.43346 | -11.02199 | 36147 ft | 444 kts | 285° |
| 2026-05-05 13:55 | 56.45055 | -11.12863 | 36146 ft | 444 kts | 285° |
| 2026-05-05 13:55 | 56.46753 | -11.23535 | 36146 ft | 444 kts | 285° |
| 2026-05-05 13:56 | 56.48165 | -11.32450 | 36141 ft | 444 kts | 285° |
| 2026-05-05 13:56 | 56.50135 | -11.44974 | 36146 ft | 444 kts | 285° |
| 2026-05-05 13:57 | 56.51801 | -11.55634 | 36146 ft | 444 kts | 285° |
| 2026-05-05 13:57 | 56.53464 | -11.66348 | 36147 ft | 444 kts | 285° |
| 2026-05-05 13:58 | 56.55125 | -11.77113 | 36147 ft | 444 kts | 285° |
| 2026-05-05 13:58 | 56.56767 | -11.87830 | 36146 ft | 444 kts | 285° |
| 2026-05-05 13:59 | 56.59210 | -12.03904 | 36150 ft | 444 kts | 285° |
| 2026-05-05 14:00 | 56.61373 | -12.18272 | 36149 ft | 444 kts | 285° |
| 2026-05-05 14:00 | 56.63252 | -12.30849 | 36154 ft | 444 kts | 285° |
| 2026-05-05 14:01 | 56.64846 | -12.41595 | 36157 ft | 444 kts | 285° |
| 2026-05-05 14:01 | 56.66446 | -12.52451 | 36158 ft | 445 kts | 285° |
| 2026-05-05 14:02 | 56.68023 | -12.63232 | 36157 ft | 445 kts | 285° |
| 2026-05-05 14:02 | 56.69591 | -12.74027 | 36158 ft | 445 kts | 284° |
| 2026-05-05 14:03 | 56.71153 | -12.84853 | 36158 ft | 445 kts | 284° |
| 2026-05-05 14:03 | 56.72714 | -12.95750 | 36159 ft | 445 kts | 284° |
| 2026-05-05 14:04 | 56.74251 | -13.06541 | 36159 ft | 445 kts | 284° |
| 2026-05-05 14:04 | 56.75792 | -13.17438 | 36160 ft | 444 kts | 284° |
| 2026-05-05 14:05 | 56.77319 | -13.28321 | 36159 ft | 445 kts | 284° |
| 2026-05-05 14:05 | 56.78826 | -13.39131 | 36158 ft | 445 kts | 284° |
| 2026-05-05 14:06 | 56.80335 | -13.50039 | 36159 ft | 445 kts | 284° |
| 2026-05-05 14:06 | 56.81840 | -13.60990 | 36161 ft | 445 kts | 284° |
| 2026-05-05 14:07 | 56.83320 | -13.71835 | 36159 ft | 445 kts | 283° |
| 2026-05-05 14:07 | 56.84808 | -13.82818 | 36534 ft | 445 kts | 283° |
| 2026-05-05 14:08 | 56.85544 | -13.88281 | 36377 ft | 445 kts | 283° |
| 2026-05-05 14:08 | 56.86270 | -13.93686 | 36272 ft | 443 kts | 283° |
| 2026-05-05 14:08 | 56.87722 | -14.04557 | 36210 ft | 442 kts | 283° |
| 2026-05-05 14:09 | 56.89168 | -14.15469 | 36176 ft | 442 kts | 283° |
| 2026-05-05 14:09 | 56.90593 | -14.26304 | 36167 ft | 442 kts | 283° |
| 2026-05-05 14:10 | 56.92019 | -14.37229 | 36166 ft | 442 kts | 283° |
| 2026-05-05 14:10 | 56.93424 | -14.48073 | 36166 ft | 442 kts | 283° |
| 2026-05-05 14:11 | 56.94830 | -14.58998 | 36168 ft | 442 kts | 283° |
| 2026-05-05 14:11 | 56.96220 | -14.69894 | 36172 ft | 442 kts | 283° |
| 2026-05-05 14:12 | 56.97605 | -14.80851 | 36174 ft | 442 kts | 283° |
| 2026-05-05 14:12 | 56.98979 | -14.91762 | 36171 ft | 443 kts | 283° |
| 2026-05-05 14:13 | 57.00702 | -15.02569 | 36175 ft | 443 kts | 289° |
| 2026-05-05 14:13 | 57.02921 | -15.13009 | 36176 ft | 443 kts | 292° |
| 2026-05-05 14:14 | 57.05262 | -15.23448 | 36177 ft | 443 kts | 292° |
| 2026-05-05 14:14 | 57.07590 | -15.33873 | 36168 ft | 442 kts | 292° |
| 2026-05-05 14:15 | 57.09897 | -15.44271 | 36178 ft | 442 kts | 292° |
| 2026-05-05 14:15 | 57.12198 | -15.54707 | 36171 ft | 442 kts | 292° |
| 2026-05-05 14:16 | 57.14489 | -15.65145 | 36171 ft | 442 kts | 291° |
| 2026-05-05 14:16 | 57.16766 | -15.75582 | 36177 ft | 442 kts | 291° |
| 2026-05-05 14:17 | 57.19049 | -15.86089 | 36177 ft | 442 kts | 291° |
| 2026-05-05 14:17 | 57.21316 | -15.96589 | 36174 ft | 443 kts | 291° |
| 2026-05-05 14:18 | 57.23574 | -16.07084 | 36172 ft | 442 kts | 291° |
| 2026-05-05 14:18 | 57.25812 | -16.17541 | 36174 ft | 442 kts | 291° |
| 2026-05-05 14:19 | 57.28052 | -16.28068 | 36175 ft | 442 kts | 291° |
| 2026-05-05 14:19 | 57.30285 | -16.38620 | 36177 ft | 442 kts | 291° |
| 2026-05-05 14:20 | 57.32512 | -16.49193 | 36168 ft | 442 kts | 291° |
| 2026-05-05 14:20 | 57.34721 | -16.59737 | 36174 ft | 442 kts | 292° |
| 2026-05-05 14:21 | 57.36930 | -16.70339 | 36177 ft | 443 kts | 291° |
| 2026-05-05 14:21 | 57.39124 | -16.80919 | 36182 ft | 442 kts | 291° |
| 2026-05-05 14:22 | 57.41315 | -16.91538 | 36188 ft | 442 kts | 291° |
| 2026-05-05 14:22 | 57.43497 | -17.02172 | 36188 ft | 442 kts | 291° |
| 2026-05-05 14:23 | 57.45661 | -17.12775 | 36192 ft | 443 kts | 291° |
| 2026-05-05 14:23 | 57.47829 | -17.23451 | 36192 ft | 443 kts | 291° |
| 2026-05-05 14:24 | 57.49976 | -17.34090 | 36195 ft | 443 kts | 291° |
| 2026-05-05 14:24 | 57.52113 | -17.44732 | 36196 ft | 443 kts | 291° |
| 2026-05-05 14:25 | 57.54248 | -17.55419 | 36200 ft | 443 kts | 291° |
| 2026-05-05 14:25 | 57.56388 | -17.66186 | 36203 ft | 444 kts | 291° |
| 2026-05-05 14:26 | 57.58499 | -17.76861 | 36208 ft | 443 kts | 291° |
| 2026-05-05 14:26 | 57.60616 | -17.87632 | 36209 ft | 443 kts | 291° |
| 2026-05-05 14:27 | 57.62726 | -17.98426 | 36213 ft | 444 kts | 291° |
| 2026-05-05 14:27 | 57.64822 | -18.09212 | 36212 ft | 444 kts | 291° |
| 2026-05-05 14:28 | 57.66895 | -18.19934 | 36213 ft | 443 kts | 291° |
| 2026-05-05 14:28 | 57.68971 | -18.30734 | 36217 ft | 443 kts | 291° |
| 2026-05-05 14:29 | 57.71034 | -18.41527 | 36216 ft | 443 kts | 291° |
| 2026-05-05 14:29 | 57.73092 | -18.52352 | 36216 ft | 444 kts | 291° |
| 2026-05-05 14:30 | 57.75137 | -18.63166 | 36217 ft | 444 kts | 291° |
| 2026-05-05 14:30 | 57.77179 | -18.74032 | 36220 ft | 444 kts | 291° |
| 2026-05-05 14:31 | 57.79216 | -18.84933 | 36218 ft | 444 kts | 291° |
| 2026-05-05 14:31 | 57.81237 | -18.95805 | 36221 ft | 443 kts | 291° |
| 2026-05-05 14:32 | 57.83242 | -19.06663 | 36220 ft | 443 kts | 291° |
| 2026-05-05 14:32 | 57.85239 | -19.17533 | 36225 ft | 443 kts | 291° |
| 2026-05-05 14:33 | 57.87226 | -19.28414 | 36227 ft | 443 kts | 291° |
| 2026-05-05 14:33 | 57.89209 | -19.39336 | 36229 ft | 443 kts | 291° |
| 2026-05-05 14:34 | 57.91172 | -19.50210 | 36230 ft | 443 kts | 291° |
| 2026-05-05 14:34 | 57.93132 | -19.61132 | 36234 ft | 443 kts | 291° |
| 2026-05-05 14:35 | 57.95088 | -19.72103 | 36237 ft | 443 kts | 290° |
| 2026-05-05 14:35 | 57.97028 | -19.83056 | 36243 ft | 443 kts | 290° |
| 2026-05-05 14:36 | 57.98954 | -19.93995 | 36245 ft | 442 kts | 290° |
| 2026-05-05 14:36 | 58.00731 | -20.05036 | 36244 ft | 444 kts | 288° |
| 2026-05-05 14:37 | 58.02324 | -20.16231 | 36245 ft | 443 kts | 288° |
| 2026-05-05 14:37 | 58.03894 | -20.27394 | 36247 ft | 442 kts | 288° |
| 2026-05-05 14:38 | 58.05452 | -20.38554 | 36253 ft | 442 kts | 288° |
| 2026-05-05 14:38 | 58.06995 | -20.49680 | 36255 ft | 441 kts | 288° |
| 2026-05-05 14:39 | 58.08539 | -20.60890 | 36249 ft | 441 kts | 288° |
| 2026-05-05 14:39 | 58.10065 | -20.72049 | 36252 ft | 441 kts | 287° |
| 2026-05-05 14:40 | 58.11585 | -20.83243 | 36249 ft | 441 kts | 287° |
| 2026-05-05 14:40 | 58.13088 | -20.94394 | 36250 ft | 441 kts | 288° |
| 2026-05-05 14:41 | 58.14589 | -21.05604 | 36252 ft | 440 kts | 288° |
| 2026-05-05 14:41 | 58.16072 | -21.16773 | 36251 ft | 439 kts | 288° |
| 2026-05-05 14:42 | 58.17535 | -21.27868 | 36255 ft | 438 kts | 288° |
| 2026-05-05 14:42 | 58.18997 | -21.39043 | 36253 ft | 438 kts | 288° |
| 2026-05-05 14:43 | 58.20453 | -21.50247 | 36253 ft | 439 kts | 288° |
| 2026-05-05 14:43 | 58.21892 | -21.61411 | 36251 ft | 438 kts | 288° |
| 2026-05-05 14:44 | 58.23326 | -21.72614 | 36254 ft | 439 kts | 287° |
| 2026-05-05 14:44 | 58.24753 | -21.83858 | 36252 ft | 439 kts | 287° |
| 2026-05-05 14:45 | 58.26159 | -21.95021 | 36251 ft | 438 kts | 287° |
| 2026-05-05 14:45 | 58.27323 | -22.04335 | 36248 ft | 437 kts | 288° |
| 2026-05-05 14:46 | 58.28949 | -22.17425 | 36259 ft | 436 kts | 287° |
| 2026-05-05 14:46 | 58.30325 | -22.28605 | 36260 ft | 436 kts | 288° |
| 2026-05-05 14:47 | 58.31689 | -22.39772 | 36247 ft | 437 kts | 288° |
| 2026-05-05 14:47 | 58.33041 | -22.50940 | 36248 ft | 437 kts | 288° |
| 2026-05-05 14:48 | 58.34391 | -22.62179 | 36237 ft | 437 kts | 288° |
| 2026-05-05 14:48 | 58.35730 | -22.73420 | 36237 ft | 437 kts | 287° |
| 2026-05-05 14:49 | 58.37056 | -22.84625 | 36237 ft | 436 kts | 287° |
| 2026-05-05 14:49 | 58.38372 | -22.95841 | 36234 ft | 436 kts | 287° |
| 2026-05-05 14:50 | 58.39672 | -23.07023 | 36230 ft | 435 kts | 287° |
| 2026-05-05 14:50 | 58.40964 | -23.18230 | 36225 ft | 435 kts | 287° |
| 2026-05-05 14:51 | 58.42249 | -23.29461 | 36229 ft | 434 kts | 287° |
| 2026-05-05 14:51 | 58.43524 | -23.40699 | 36226 ft | 435 kts | 287° |
| 2026-05-05 14:52 | 58.44158 | -23.46316 | 35920 ft | 435 kts | 287° |
| 2026-05-05 14:52 | 58.44787 | -23.51917 | 36033 ft | 436 kts | 287° |
| 2026-05-05 14:52 | 58.46050 | -23.63228 | 36160 ft | 438 kts | 287° |
| 2026-05-05 14:53 | 58.47306 | -23.74600 | 36208 ft | 439 kts | 286° |
| 2026-05-05 14:53 | 58.48547 | -23.85930 | 36220 ft | 439 kts | 286° |
| 2026-05-05 14:54 | 58.49777 | -23.97249 | 36224 ft | 438 kts | 286° |
| 2026-05-05 14:54 | 58.51004 | -24.08654 | 36218 ft | 437 kts | 286° |
| 2026-05-05 14:55 | 58.52208 | -24.19931 | 36216 ft | 437 kts | 286° |
| 2026-05-05 14:55 | 58.53406 | -24.31253 | 36215 ft | 437 kts | 286° |
| 2026-05-05 14:56 | 58.54602 | -24.42663 | 36214 ft | 438 kts | 287° |
| 2026-05-05 14:56 | 58.55780 | -24.54008 | 36213 ft | 437 kts | 287° |
| 2026-05-05 14:57 | 58.56952 | -24.65390 | 36215 ft | 438 kts | 286° |
| 2026-05-05 14:57 | 58.58109 | -24.76741 | 36214 ft | 438 kts | 286° |
| 2026-05-05 14:58 | 58.59260 | -24.88136 | 36214 ft | 437 kts | 286° |
| 2026-05-05 14:58 | 58.60406 | -24.99579 | 36213 ft | 436 kts | 286° |
| 2026-05-05 14:59 | 58.61525 | -25.10887 | 36215 ft | 436 kts | 286° |
| 2026-05-05 14:59 | 58.62650 | -25.22333 | 36219 ft | 436 kts | 286° |
| 2026-05-05 15:00 | 58.63572 | -25.31810 | 36220 ft | 437 kts | 285° |
| 2026-05-05 15:00 | 58.64854 | -25.45105 | 36224 ft | 437 kts | 285° |
| 2026-05-05 15:01 | 58.65948 | -25.56577 | 36218 ft | 437 kts | 285° |
| 2026-05-05 15:01 | 58.67021 | -25.67961 | 36220 ft | 437 kts | 285° |
| 2026-05-05 15:02 | 58.68092 | -25.79421 | 36223 ft | 437 kts | 285° |
| 2026-05-05 15:02 | 58.69147 | -25.90830 | 36225 ft | 436 kts | 285° |
| 2026-05-05 15:03 | 58.70193 | -26.02251 | 36222 ft | 436 kts | 285° |
| 2026-05-05 15:03 | 58.71232 | -26.13707 | 36239 ft | 436 kts | 284° |
| 2026-05-05 15:04 | 58.72257 | -26.25132 | 36236 ft | 436 kts | 284° |
| 2026-05-05 15:04 | 58.73275 | -26.36622 | 36234 ft | 435 kts | 284° |
| 2026-05-05 15:05 | 58.74777 | -26.53774 | 36235 ft | 435 kts | 284° |
| 2026-05-05 15:06 | 58.75761 | -26.65164 | 36233 ft | 435 kts | 284° |
| 2026-05-05 15:06 | 58.76744 | -26.76669 | 36243 ft | 436 kts | 284° |
| 2026-05-05 15:07 | 58.77711 | -26.88103 | 36237 ft | 436 kts | 284° |
| 2026-05-05 15:07 | 58.78668 | -26.99564 | 36233 ft | 435 kts | 284° |
| 2026-05-05 15:08 | 58.79615 | -27.11024 | 36228 ft | 435 kts | 283° |
| 2026-05-05 15:08 | 58.80553 | -27.22510 | 36222 ft | 435 kts | 284° |
| 2026-05-05 15:09 | 58.81482 | -27.34002 | 36206 ft | 435 kts | 284° |
| 2026-05-05 15:09 | 58.82396 | -27.45430 | 36196 ft | 434 kts | 284° |
| 2026-05-05 15:10 | 58.83299 | -27.56882 | 36193 ft | 434 kts | 284° |
| 2026-05-05 15:10 | 58.84194 | -27.68347 | 36197 ft | 434 kts | 283° |
| 2026-05-05 15:11 | 58.85078 | -27.79828 | 36199 ft | 434 kts | 283° |
| 2026-05-05 15:11 | 58.85948 | -27.91240 | 36197 ft | 433 kts | 283° |
| 2026-05-05 15:12 | 58.86815 | -28.02762 | 36196 ft | 433 kts | 283° |
| 2026-05-05 15:12 | 58.87663 | -28.14167 | 36195 ft | 433 kts | 283° |
| 2026-05-05 15:13 | 58.88511 | -28.25716 | 36198 ft | 434 kts | 283° |
| 2026-05-05 15:13 | 58.89343 | -28.37199 | 36195 ft | 434 kts | 283° |
| 2026-05-05 15:14 | 58.90163 | -28.48654 | 36197 ft | 434 kts | 283° |
| 2026-05-05 15:14 | 58.90978 | -28.60198 | 36202 ft | 433 kts | 283° |
| 2026-05-05 15:15 | 58.91777 | -28.71674 | 36207 ft | 434 kts | 282° |
| 2026-05-05 15:15 | 58.92571 | -28.83219 | 36204 ft | 434 kts | 282° |
| 2026-05-05 15:16 | 58.93353 | -28.94729 | 36208 ft | 434 kts | 282° |
| 2026-05-05 15:16 | 58.94128 | -29.06314 | 36211 ft | 435 kts | 282° |
| 2026-05-05 15:17 | 58.94891 | -29.17882 | 36206 ft | 435 kts | 282° |
| 2026-05-05 15:17 | 58.95642 | -29.29405 | 36204 ft | 435 kts | 282° |
| 2026-05-05 15:18 | 58.96385 | -29.40995 | 36209 ft | 435 kts | 282° |
| 2026-05-05 15:18 | 58.97117 | -29.52565 | 36212 ft | 435 kts | 282° |
| 2026-05-05 15:19 | 58.97838 | -29.64134 | 36208 ft | 435 kts | 282° |
| 2026-05-05 15:19 | 58.98552 | -29.75762 | 36208 ft | 436 kts | 281° |
| 2026-05-05 15:20 | 58.99252 | -29.87369 | 36206 ft | 436 kts | 281° |
| 2026-05-05 15:20 | 58.99938 | -29.99016 | 36205 ft | 437 kts | 280° |
| 2026-05-05 15:21 | 59.00420 | -30.10717 | 36208 ft | 438 kts | 279° |
| 2026-05-05 15:21 | 59.00856 | -30.22447 | 36210 ft | 438 kts | 279° |
| 2026-05-05 15:22 | 59.01284 | -30.34202 | 36208 ft | 439 kts | 279° |
| 2026-05-05 15:22 | 59.01702 | -30.45947 | 36199 ft | 440 kts | 279° |
| 2026-05-05 15:23 | 59.02110 | -30.57753 | 36203 ft | 441 kts | 278° |
| 2026-05-05 15:23 | 59.02504 | -30.69538 | 36207 ft | 441 kts | 278° |
| 2026-05-05 15:24 | 59.02892 | -30.81409 | 36204 ft | 441 kts | 278° |
| 2026-05-05 15:24 | 59.03268 | -30.93184 | 36206 ft | 442 kts | 278° |
| 2026-05-05 15:25 | 59.03635 | -31.05054 | 36200 ft | 442 kts | 278° |
| 2026-05-05 15:25 | 59.03992 | -31.16943 | 36201 ft | 443 kts | 278° |
| 2026-05-05 15:26 | 59.04338 | -31.28838 | 36199 ft | 444 kts | 278° |
| 2026-05-05 15:26 | 59.04671 | -31.40706 | 36200 ft | 444 kts | 278° |
| 2026-05-05 15:27 | 59.04996 | -31.52652 | 36198 ft | 444 kts | 278° |
| 2026-05-05 15:27 | 59.05309 | -31.64546 | 36198 ft | 444 kts | 277° |
| 2026-05-05 15:28 | 59.05613 | -31.76531 | 36201 ft | 446 kts | 277° |
| 2026-05-05 15:28 | 59.05907 | -31.88497 | 36200 ft | 446 kts | 276° |
| 2026-05-05 15:29 | 59.06188 | -32.00468 | 36198 ft | 447 kts | 276° |
| 2026-05-05 15:29 | 59.06461 | -32.12500 | 36200 ft | 448 kts | 276° |
| 2026-05-05 15:30 | 59.06722 | -32.24560 | 36204 ft | 448 kts | 276° |
| 2026-05-05 15:30 | 59.06970 | -32.36597 | 36206 ft | 448 kts | 276° |
| 2026-05-05 15:31 | 59.07209 | -32.48634 | 36204 ft | 449 kts | 276° |
| 2026-05-05 15:31 | 59.07437 | -32.60679 | 36204 ft | 449 kts | 276° |
| 2026-05-05 15:32 | 59.07654 | -32.72814 | 36205 ft | 450 kts | 275° |
| 2026-05-05 15:32 | 59.07861 | -32.84912 | 36203 ft | 451 kts | 275° |
| 2026-05-05 15:33 | 59.08056 | -32.97046 | 36206 ft | 452 kts | 275° |
| 2026-05-05 15:33 | 59.08240 | -33.09181 | 36205 ft | 452 kts | 275° |
| 2026-05-05 15:34 | 59.08413 | -33.21361 | 36207 ft | 452 kts | 275° |
| 2026-05-05 15:34 | 59.08574 | -33.33544 | 36208 ft | 454 kts | 275° |
| 2026-05-05 15:35 | 59.08724 | -33.45733 | 36214 ft | 454 kts | 275° |
| 2026-05-05 15:35 | 59.08865 | -33.58012 | 36218 ft | 455 kts | 275° |
| 2026-05-05 15:36 | 59.08992 | -33.70246 | 36219 ft | 456 kts | 274° |
| 2026-05-05 15:36 | 59.09109 | -33.82495 | 36219 ft | 456 kts | 274° |
| 2026-05-05 15:37 | 59.09215 | -33.94765 | 36224 ft | 456 kts | 274° |
| 2026-05-05 15:37 | 59.09308 | -34.07049 | 36227 ft | 457 kts | 274° |
| 2026-05-05 15:38 | 59.09389 | -34.19390 | 36222 ft | 458 kts | 274° |
| 2026-05-05 15:38 | 59.09460 | -34.31717 | 36223 ft | 459 kts | 274° |
| 2026-05-05 15:39 | 59.09518 | -34.44132 | 36224 ft | 459 kts | 274° |
| 2026-05-05 15:39 | 59.09566 | -34.56433 | 36224 ft | 459 kts | 273° |
| 2026-05-05 15:40 | 59.09601 | -34.68811 | 36226 ft | 460 kts | 272° |
| 2026-05-05 15:40 | 59.09625 | -34.81214 | 36231 ft | 461 kts | 272° |
| 2026-05-05 15:41 | 59.09637 | -34.93637 | 36224 ft | 461 kts | 272° |
| 2026-05-05 15:41 | 59.09636 | -35.06084 | 36226 ft | 461 kts | 272° |
| 2026-05-05 15:42 | 59.09625 | -35.18501 | 36220 ft | 462 kts | 272° |
| 2026-05-05 15:42 | 59.09601 | -35.30911 | 36222 ft | 463 kts | 272° |
| 2026-05-05 15:43 | 59.09566 | -35.43406 | 36220 ft | 464 kts | 272° |
| 2026-05-05 15:43 | 59.09517 | -35.55887 | 36224 ft | 465 kts | 272° |
| 2026-05-05 15:44 | 59.09457 | -35.68428 | 36223 ft | 466 kts | 271° |
| 2026-05-05 15:44 | 59.09386 | -35.80943 | 36222 ft | 466 kts | 271° |
| 2026-05-05 15:45 | 59.09301 | -35.93534 | 36219 ft | 466 kts | 271° |
| 2026-05-05 15:45 | 59.09206 | -36.06090 | 36224 ft | 467 kts | 271° |
| 2026-05-05 15:46 | 59.09095 | -36.18662 | 36225 ft | 468 kts | 271° |
| 2026-05-05 15:46 | 59.08974 | -36.31231 | 36229 ft | 469 kts | 271° |
| 2026-05-05 15:47 | 59.08841 | -36.43900 | 36226 ft | 470 kts | 270° |
| 2026-05-05 15:47 | 59.08695 | -36.56573 | 36226 ft | 471 kts | 270° |
| 2026-05-05 15:48 | 59.08535 | -36.69247 | 36229 ft | 472 kts | 270° |
| 2026-05-05 15:48 | 59.08364 | -36.81905 | 36230 ft | 473 kts | 269° |
| 2026-05-05 15:49 | 59.08180 | -36.94609 | 36229 ft | 474 kts | 269° |
| 2026-05-05 15:49 | 59.07982 | -37.07424 | 36228 ft | 474 kts | 269° |
| 2026-05-05 15:50 | 59.07771 | -37.20150 | 36230 ft | 475 kts | 269° |
| 2026-05-05 15:50 | 59.07549 | -37.32882 | 36226 ft | 475 kts | 269° |
| 2026-05-05 15:51 | 59.07313 | -37.45706 | 36221 ft | 476 kts | 269° |
| 2026-05-05 15:51 | 59.07064 | -37.58553 | 36221 ft | 477 kts | 269° |
| 2026-05-05 15:52 | 59.06803 | -37.71358 | 36217 ft | 478 kts | 268° |
| 2026-05-05 15:52 | 59.06529 | -37.84161 | 36208 ft | 478 kts | 268° |
| 2026-05-05 15:53 | 59.06240 | -37.96974 | 36211 ft | 478 kts | 268° |
| 2026-05-05 15:53 | 59.05940 | -38.09858 | 36215 ft | 479 kts | 268° |
| 2026-05-05 15:54 | 59.05627 | -38.22704 | 36212 ft | 480 kts | 268° |
| 2026-05-05 15:54 | 59.05300 | -38.35606 | 36207 ft | 481 kts | 268° |
| 2026-05-05 15:55 | 59.04957 | -38.48601 | 36205 ft | 482 kts | 268° |
| 2026-05-05 15:55 | 59.04604 | -38.61482 | 36207 ft | 482 kts | 268° |
| 2026-05-05 15:56 | 59.04237 | -38.74452 | 36205 ft | 483 kts | 266° |
| 2026-05-05 15:56 | 59.03857 | -38.87395 | 36201 ft | 483 kts | 266° |
| 2026-05-05 15:57 | 59.03462 | -39.00384 | 36199 ft | 484 kts | 266° |
| 2026-05-05 15:57 | 59.03052 | -39.13367 | 36199 ft | 485 kts | 266° |
| 2026-05-05 15:58 | 59.02630 | -39.26384 | 36197 ft | 486 kts | 266° |
| 2026-05-05 15:58 | 59.02195 | -39.39442 | 36196 ft | 486 kts | 266° |
| 2026-05-05 15:59 | 59.01748 | -39.52432 | 36187 ft | 486 kts | 266° |
| 2026-05-05 15:59 | 59.01282 | -39.65525 | 36188 ft | 488 kts | 265° |
| 2026-05-05 16:00 | 59.00807 | -39.78538 | 36177 ft | 488 kts | 265° |
| 2026-05-05 16:00 | 59.00275 | -39.91603 | 36186 ft | 487 kts | 263° |
| 2026-05-05 16:01 | 58.99176 | -40.04514 | 36173 ft | 487 kts | 256° |
| 2026-05-05 16:01 | 58.97400 | -40.17060 | 36177 ft | 487 kts | 252° |
| 2026-05-05 16:02 | 58.95453 | -40.29642 | 36179 ft | 488 kts | 252° |
| 2026-05-05 16:02 | 58.93505 | -40.42182 | 36172 ft | 489 kts | 252° |
| 2026-05-05 16:03 | 58.91558 | -40.54651 | 36168 ft | 489 kts | 252° |
| 2026-05-05 16:03 | 58.89583 | -40.67231 | 36160 ft | 489 kts | 251° |
| 2026-05-05 16:04 | 58.87602 | -40.79765 | 36158 ft | 490 kts | 251° |
| 2026-05-05 16:04 | 58.85605 | -40.92294 | 36157 ft | 491 kts | 251° |
| 2026-05-05 16:05 | 58.83601 | -41.04785 | 36151 ft | 491 kts | 250° |
| 2026-05-05 16:05 | 58.81564 | -41.17397 | 36142 ft | 492 kts | 250° |
| 2026-05-05 16:06 | 58.79528 | -41.29905 | 36141 ft | 493 kts | 250° |
| 2026-05-05 16:06 | 58.77475 | -41.42433 | 36137 ft | 493 kts | 250° |
| 2026-05-05 16:07 | 58.75409 | -41.54948 | 36138 ft | 494 kts | 250° |
| 2026-05-05 16:07 | 58.73323 | -41.67509 | 36130 ft | 495 kts | 249° |
| 2026-05-05 16:08 | 58.71216 | -41.80095 | 36129 ft | 495 kts | 249° |
| 2026-05-05 16:08 | 58.69109 | -41.92589 | 36123 ft | 496 kts | 249° |
| 2026-05-05 16:09 | 58.66983 | -42.05107 | 36120 ft | 497 kts | 249° |
| 2026-05-05 16:09 | 58.64826 | -42.17728 | 36113 ft | 497 kts | 249° |
| 2026-05-05 16:10 | 58.62675 | -42.30232 | 36100 ft | 497 kts | 249° |
| 2026-05-05 16:10 | 58.60508 | -42.42732 | 36094 ft | 497 kts | 249° |
| 2026-05-05 16:11 | 58.58326 | -42.55251 | 36091 ft | 497 kts | 249° |
| 2026-05-05 16:12 | 58.53913 | -42.80283 | 36063 ft | 498 kts | 248° |
| 2026-05-05 16:13 | 58.48322 | -43.11514 | 36043 ft | 499 kts | 247° |
| 2026-05-05 16:13 | 58.46057 | -43.24022 | 36039 ft | 500 kts | 247° |
| 2026-05-05 16:14 | 58.41488 | -43.49013 | 36028 ft | 501 kts | 247° |
| 2026-05-05 16:15 | 58.36868 | -43.73940 | 36013 ft | 502 kts | 246° |
| 2026-05-05 16:16 | 58.32209 | -43.98766 | 35995 ft | 502 kts | 245° |
| 2026-05-05 16:17 | 58.28654 | -44.17480 | 36004 ft | 504 kts | 245° |
| 2026-05-05 16:18 | 58.25081 | -44.36121 | 35988 ft | 504 kts | 245° |
| 2026-05-05 16:19 | 58.21458 | -44.54832 | 35977 ft | 505 kts | 245° |
| 2026-05-05 16:19 | 58.17817 | -44.73463 | 35961 ft | 505 kts | 244° |
| 2026-05-05 16:20 | 58.12913 | -44.98286 | 35948 ft | 507 kts | 244° |
| 2026-05-05 16:22 | 58.06700 | -45.29283 | 35903 ft | 508 kts | 244° |
| 2026-05-05 16:23 | 58.01663 | -45.54081 | 35909 ft | 509 kts | 244° |
| 2026-05-05 16:23 | 57.97853 | -45.72629 | 35897 ft | 509 kts | 243° |
| 2026-05-05 16:24 | 57.95295 | -45.84971 | 35909 ft | 508 kts | 243° |
| 2026-05-05 16:25 | 57.91449 | -46.03422 | 35892 ft | 508 kts | 243° |
| 2026-05-05 16:25 | 57.87561 | -46.21893 | 35897 ft | 508 kts | 243° |
| 2026-05-05 16:26 | 57.82353 | -46.46375 | 35896 ft | 507 kts | 243° |
| 2026-05-05 16:27 | 57.79720 | -46.58650 | 35881 ft | 506 kts | 243° |
| 2026-05-05 16:27 | 57.77093 | -46.70812 | 36002 ft | 506 kts | 242° |
| 2026-05-05 16:28 | 57.74461 | -46.82950 | 35895 ft | 506 kts | 242° |
| 2026-05-05 16:28 | 57.71806 | -46.95100 | 35853 ft | 505 kts | 242° |
| 2026-05-05 16:29 | 57.69142 | -47.07209 | 35851 ft | 506 kts | 242° |
| 2026-05-05 16:29 | 57.66469 | -47.19302 | 35844 ft | 504 kts | 242° |
| 2026-05-05 16:30 | 57.63790 | -47.31339 | 35849 ft | 505 kts | 242° |
| 2026-05-05 16:30 | 57.61099 | -47.43384 | 35831 ft | 504 kts | 242° |
| 2026-05-05 16:31 | 57.58407 | -47.55360 | 35826 ft | 504 kts | 242° |
| 2026-05-05 16:31 | 57.55709 | -47.67293 | 35826 ft | 503 kts | 241° |
| 2026-05-05 16:32 | 57.52986 | -47.79263 | 35804 ft | 503 kts | 241° |
| 2026-05-05 16:32 | 57.50279 | -47.91109 | 35813 ft | 502 kts | 241° |
| 2026-05-05 16:33 | 57.47543 | -48.02997 | 35799 ft | 503 kts | 242° |
| 2026-05-05 16:33 | 57.44797 | -48.14885 | 35781 ft | 500 kts | 242° |
| 2026-05-05 16:34 | 57.42065 | -48.26625 | 35772 ft | 500 kts | 242° |
| 2026-05-05 16:34 | 57.39295 | -48.38470 | 35766 ft | 502 kts | 242° |
| 2026-05-05 16:35 | 57.36522 | -48.50263 | 35756 ft | 501 kts | 242° |
| 2026-05-05 16:35 | 57.33743 | -48.62028 | 35740 ft | 501 kts | 242° |
| 2026-05-05 16:36 | 57.30961 | -48.73732 | 35750 ft | 499 kts | 241° |
| 2026-05-05 16:36 | 57.28171 | -48.85406 | 35741 ft | 499 kts | 241° |
| 2026-05-05 16:37 | 57.25364 | -48.97091 | 35733 ft | 499 kts | 241° |
| 2026-05-05 16:37 | 57.22544 | -49.08765 | 35733 ft | 498 kts | 241° |
| 2026-05-05 16:38 | 57.19723 | -49.20374 | 35742 ft | 499 kts | 241° |
| 2026-05-05 16:38 | 57.16893 | -49.31969 | 35716 ft | 500 kts | 241° |
| 2026-05-05 16:39 | 57.14055 | -49.43538 | 35724 ft | 499 kts | 241° |
| 2026-05-05 16:39 | 57.11181 | -49.55182 | 35722 ft | 499 kts | 241° |
| 2026-05-05 16:40 | 57.08316 | -49.66736 | 35697 ft | 498 kts | 241° |
| 2026-05-05 16:40 | 57.05446 | -49.78249 | 35702 ft | 498 kts | 240° |
| 2026-05-05 16:41 | 57.02584 | -49.89671 | 35679 ft | 498 kts | 241° |
| 2026-05-05 16:41 | 56.99684 | -50.01186 | 35690 ft | 498 kts | 241° |
| 2026-05-05 16:42 | 56.96887 | -50.12750 | 35680 ft | 498 kts | 242° |
| 2026-05-05 16:42 | 56.94109 | -50.24303 | 35675 ft | 497 kts | 242° |
| 2026-05-05 16:43 | 56.91335 | -50.35754 | 35670 ft | 497 kts | 242° |
| 2026-05-05 16:43 | 56.88524 | -50.47278 | 35668 ft | 496 kts | 242° |
| 2026-05-05 16:44 | 56.85715 | -50.58712 | 35654 ft | 496 kts | 242° |
| 2026-05-05 16:44 | 56.82875 | -50.70213 | 35652 ft | 496 kts | 242° |
| 2026-05-05 16:45 | 56.80055 | -50.81583 | 35638 ft | 496 kts | 242° |
| 2026-05-05 16:45 | 56.77204 | -50.93013 | 35630 ft | 496 kts | 242° |
| 2026-05-05 16:46 | 56.74362 | -51.04347 | 35625 ft | 496 kts | 242° |
| 2026-05-05 16:46 | 56.71491 | -51.15738 | 35618 ft | 495 kts | 242° |
| 2026-05-05 16:47 | 56.68645 | -51.26974 | 35624 ft | 495 kts | 242° |
| 2026-05-05 16:47 | 56.65748 | -51.38350 | 35621 ft | 495 kts | 242° |
| 2026-05-05 16:48 | 56.62876 | -51.49576 | 35610 ft | 494 kts | 242° |
| 2026-05-05 16:48 | 56.59965 | -51.60889 | 35611 ft | 494 kts | 242° |
| 2026-05-05 16:49 | 56.57076 | -51.72068 | 35604 ft | 494 kts | 241° |
| 2026-05-05 16:49 | 56.54165 | -51.83277 | 35593 ft | 494 kts | 241° |
| 2026-05-05 16:50 | 56.51234 | -51.94498 | 35582 ft | 494 kts | 241° |
| 2026-05-05 16:50 | 56.48299 | -52.05682 | 35570 ft | 494 kts | 242° |
| 2026-05-05 16:51 | 56.45364 | -52.16808 | 35560 ft | 494 kts | 242° |
| 2026-05-05 16:51 | 56.42417 | -52.27931 | 35553 ft | 493 kts | 242° |
| 2026-05-05 16:52 | 56.39444 | -52.39097 | 35552 ft | 493 kts | 242° |
| 2026-05-05 16:52 | 56.36489 | -52.50133 | 35544 ft | 493 kts | 242° |
| 2026-05-05 16:53 | 56.33515 | -52.61194 | 35541 ft | 493 kts | 242° |
| 2026-05-05 16:53 | 56.30520 | -52.72278 | 35546 ft | 492 kts | 241° |
| 2026-05-05 16:54 | 56.27526 | -52.83300 | 35538 ft | 491 kts | 241° |
| 2026-05-05 16:54 | 56.24525 | -52.94298 | 35535 ft | 491 kts | 241° |
| 2026-05-05 16:55 | 56.21517 | -53.05271 | 35528 ft | 491 kts | 241° |
| 2026-05-05 16:55 | 56.18503 | -53.16208 | 35523 ft | 491 kts | 241° |
| 2026-05-05 16:56 | 56.15483 | -53.27118 | 35523 ft | 491 kts | 242° |
| 2026-05-05 16:56 | 56.12466 | -53.37965 | 35515 ft | 490 kts | 242° |
| 2026-05-05 16:57 | 56.09420 | -53.48860 | 35507 ft | 490 kts | 242° |
| 2026-05-05 16:57 | 56.06365 | -53.59744 | 35502 ft | 490 kts | 242° |
| 2026-05-05 16:58 | 56.03320 | -53.70542 | 35501 ft | 489 kts | 241° |
| 2026-05-05 16:58 | 56.00264 | -53.81326 | 35501 ft | 489 kts | 241° |
| 2026-05-05 16:59 | 55.97203 | -53.92076 | 35493 ft | 488 kts | 241° |
| 2026-05-05 16:59 | 55.94125 | -54.02832 | 35487 ft | 488 kts | 241° |
| 2026-05-05 17:00 | 55.91039 | -54.13571 | 35480 ft | 488 kts | 241° |
| 2026-05-05 17:00 | 55.87964 | -54.24221 | 35479 ft | 488 kts | 241° |
| 2026-05-05 17:01 | 55.84856 | -54.34937 | 35478 ft | 487 kts | 241° |
| 2026-05-05 17:01 | 55.81771 | -54.45524 | 35479 ft | 487 kts | 241° |
| 2026-05-05 17:02 | 55.78664 | -54.56140 | 35481 ft | 486 kts | 241° |
| 2026-05-05 17:02 | 55.75551 | -54.66730 | 35477 ft | 485 kts | 240° |
| 2026-05-05 17:03 | 55.72416 | -54.77343 | 35472 ft | 485 kts | 240° |
| 2026-05-05 17:03 | 55.69305 | -54.87828 | 35468 ft | 485 kts | 240° |
| 2026-05-05 17:04 | 55.66179 | -54.98319 | 35463 ft | 484 kts | 240° |
| 2026-05-05 17:04 | 55.63026 | -55.08854 | 35461 ft | 484 kts | 240° |
| 2026-05-05 17:05 | 55.59884 | -55.19301 | 35463 ft | 483 kts | 240° |
| 2026-05-05 17:05 | 55.56755 | -55.29657 | 35465 ft | 483 kts | 240° |
| 2026-05-05 17:06 | 55.53586 | -55.40106 | 35470 ft | 482 kts | 240° |
| 2026-05-05 17:06 | 55.50421 | -55.50494 | 35471 ft | 482 kts | 240° |
| 2026-05-05 17:07 | 55.47250 | -55.60862 | 35471 ft | 482 kts | 240° |
| 2026-05-05 17:07 | 55.44076 | -55.71185 | 35469 ft | 482 kts | 240° |
| 2026-05-05 17:08 | 55.40906 | -55.81458 | 35467 ft | 481 kts | 240° |
| 2026-05-05 17:08 | 55.37697 | -55.91803 | 35472 ft | 481 kts | 240° |
| 2026-05-05 17:09 | 55.34525 | -56.01994 | 35469 ft | 480 kts | 240° |
| 2026-05-05 17:09 | 55.31327 | -56.12220 | 35464 ft | 480 kts | 240° |
| 2026-05-05 17:10 | 55.28105 | -56.22480 | 35461 ft | 480 kts | 240° |
| 2026-05-05 17:10 | 55.24901 | -56.32639 | 35462 ft | 480 kts | 240° |
| 2026-05-05 17:11 | 55.21683 | -56.42802 | 35461 ft | 479 kts | 240° |
| 2026-05-05 17:11 | 55.18444 | -56.52987 | 35460 ft | 479 kts | 240° |
| 2026-05-05 17:12 | 55.15229 | -56.63052 | 35460 ft | 478 kts | 240° |
| 2026-05-05 17:12 | 55.11993 | -56.73144 | 35461 ft | 477 kts | 239° |
| 2026-05-05 17:13 | 55.08746 | -56.83222 | 35462 ft | 477 kts | 239° |
| 2026-05-05 17:13 | 55.05345 | -56.93077 | 35463 ft | 478 kts | 235° |
| 2026-05-05 17:14 | 55.01368 | -57.02352 | 35465 ft | 477 kts | 230° |
| 2026-05-05 17:14 | 54.96905 | -57.10776 | 35468 ft | 477 kts | 224° |
| 2026-05-05 17:15 | 54.92132 | -57.18796 | 35467 ft | 476 kts | 224° |
| 2026-05-05 17:15 | 54.87413 | -57.26745 | 35467 ft | 475 kts | 224° |
| 2026-05-05 17:16 | 54.82681 | -57.34688 | 35475 ft | 474 kts | 224° |
| 2026-05-05 17:16 | 54.77967 | -57.42568 | 35469 ft | 473 kts | 224° |
| 2026-05-05 17:17 | 54.73274 | -57.50388 | 35472 ft | 473 kts | 224° |
| 2026-05-05 17:17 | 54.68539 | -57.58249 | 35465 ft | 473 kts | 224° |
| 2026-05-05 17:18 | 54.63789 | -57.66108 | 35472 ft | 472 kts | 224° |
| 2026-05-05 17:18 | 54.59059 | -57.73908 | 35470 ft | 472 kts | 224° |
| 2026-05-05 17:19 | 54.54360 | -57.81634 | 35465 ft | 472 kts | 224° |
| 2026-05-05 17:19 | 54.49616 | -57.89407 | 35471 ft | 471 kts | 224° |
| 2026-05-05 17:20 | 54.44875 | -57.97143 | 35468 ft | 471 kts | 224° |
| 2026-05-05 17:20 | 54.40136 | -58.04854 | 35466 ft | 471 kts | 224° |
| 2026-05-05 17:21 | 54.35408 | -58.12521 | 35472 ft | 471 kts | 224° |
| 2026-05-05 17:22 | 54.28288 | -58.24018 | 35472 ft | 469 kts | 224° |
| 2026-05-05 17:22 | 54.23574 | -58.31600 | 35476 ft | 469 kts | 224° |
| 2026-05-05 17:23 | 54.18827 | -58.39209 | 35464 ft | 469 kts | 224° |
| 2026-05-05 17:23 | 54.14080 | -58.46796 | 35462 ft | 469 kts | 224° |
| 2026-05-05 17:24 | 54.09362 | -58.54308 | 35460 ft | 469 kts | 224° |
| 2026-05-05 17:24 | 54.04590 | -58.61884 | 35478 ft | 469 kts | 224° |
| 2026-05-05 17:25 | 53.99831 | -58.69411 | 35481 ft | 469 kts | 224° |
| 2026-05-05 17:25 | 53.95065 | -58.76926 | 35491 ft | 469 kts | 224° |
| 2026-05-05 17:26 | 53.90320 | -58.84385 | 35482 ft | 469 kts | 224° |
| 2026-05-05 17:26 | 53.85546 | -58.91861 | 35479 ft | 468 kts | 224° |
| 2026-05-05 17:27 | 53.80783 | -58.99298 | 35469 ft | 467 kts | 224° |
| 2026-05-05 17:27 | 53.76046 | -59.06673 | 35490 ft | 466 kts | 224° |
| 2026-05-05 17:28 | 53.71275 | -59.14074 | 35494 ft | 466 kts | 224° |
| 2026-05-05 17:28 | 53.66521 | -59.21428 | 35480 ft | 466 kts | 224° |
| 2026-05-05 17:29 | 53.61750 | -59.28780 | 35502 ft | 467 kts | 224° |
| 2026-05-05 17:29 | 53.59373 | -59.32438 | 35689 ft | 468 kts | 224° |
| 2026-05-05 17:29 | 53.56968 | -59.36132 | 35976 ft | 466 kts | 224° |
| 2026-05-05 17:29 | 53.54588 | -59.39782 | 36226 ft | 465 kts | 224° |
| 2026-05-05 17:30 | 53.52216 | -59.43413 | 36426 ft | 466 kts | 224° |
| 2026-05-05 17:30 | 53.49842 | -59.47039 | 36612 ft | 466 kts | 224° |
| 2026-05-05 17:30 | 53.47444 | -59.50700 | 36794 ft | 466 kts | 224° |
| 2026-05-05 17:30 | 53.45053 | -59.54341 | 36977 ft | 467 kts | 224° |
| 2026-05-05 17:31 | 53.42664 | -59.57975 | 37123 ft | 467 kts | 224° |
| 2026-05-05 17:31 | 53.40253 | -59.61639 | 37297 ft | 467 kts | 224° |
| 2026-05-05 17:31 | 53.37843 | -59.65292 | 37463 ft | 468 kts | 223° |
| 2026-05-05 17:31 | 53.35472 | -59.68881 | 37640 ft | 467 kts | 223° |
| 2026-05-05 17:32 | 53.33040 | -59.72555 | 37806 ft | 467 kts | 223° |
| 2026-05-05 17:32 | 53.30644 | -59.76170 | 37965 ft | 468 kts | 223° |
| 2026-05-05 17:32 | 53.28228 | -59.79809 | 38152 ft | 468 kts | 223° |
| 2026-05-05 17:32 | 53.25816 | -59.83435 | 38336 ft | 468 kts | 223° |
| 2026-05-05 17:33 | 53.23408 | -59.87049 | 38504 ft | 468 kts | 223° |
| 2026-05-05 17:33 | 53.21012 | -59.90638 | 38701 ft | 468 kts | 223° |
| 2026-05-05 17:33 | 53.18598 | -59.94252 | 38894 ft | 467 kts | 223° |
| 2026-05-05 17:33 | 53.16204 | -59.97829 | 39050 ft | 467 kts | 223° |
| 2026-05-05 17:34 | 53.13779 | -60.01450 | 39184 ft | 468 kts | 223° |
| 2026-05-05 17:34 | 53.11374 | -60.05033 | 39336 ft | 468 kts | 223° |
| 2026-05-05 17:34 | 53.08958 | -60.08629 | 39482 ft | 468 kts | 223° |
| 2026-05-05 17:35 | 53.04115 | -60.15813 | 39528 ft | 467 kts | 223° |
| 2026-05-05 17:35 | 52.99279 | -60.22968 | 39530 ft | 467 kts | 223° |
| 2026-05-05 17:36 | 52.94432 | -60.30117 | 39527 ft | 467 kts | 223° |
| 2026-05-05 17:36 | 52.89613 | -60.37200 | 39532 ft | 467 kts | 223° |
| 2026-05-05 17:37 | 52.84761 | -60.44310 | 39539 ft | 466 kts | 223° |
| 2026-05-05 17:37 | 52.79930 | -60.51366 | 39555 ft | 466 kts | 223° |
| 2026-05-05 17:38 | 52.75091 | -60.58416 | 39552 ft | 466 kts | 223° |
| 2026-05-05 17:38 | 52.70254 | -60.65439 | 39559 ft | 466 kts | 222° |
| 2026-05-05 17:39 | 52.65393 | -60.72476 | 39565 ft | 465 kts | 222° |
| 2026-05-05 17:39 | 52.60546 | -60.79471 | 39552 ft | 464 kts | 222° |
| 2026-05-05 17:40 | 52.55709 | -60.86430 | 39543 ft | 464 kts | 222° |
| 2026-05-05 17:40 | 52.50873 | -60.93367 | 39556 ft | 463 kts | 222° |
| 2026-05-05 17:41 | 52.46038 | -61.00280 | 39551 ft | 462 kts | 222° |
| 2026-05-05 17:41 | 52.41208 | -61.07166 | 39563 ft | 462 kts | 222° |
| 2026-05-05 17:42 | 52.36395 | -61.14009 | 39560 ft | 462 kts | 222° |
| 2026-05-05 17:42 | 52.31566 | -61.20853 | 39565 ft | 461 kts | 222° |
| 2026-05-05 17:43 | 52.29950 | -61.23138 | 39566 ft | 461 kts | 222° |